sensor_id;sensor_type;location;lat;lon;timestamp;pressure;altitude;pressure_sealevel;temperature;humidity
39267;BME280;24967;51.154;13.812;2023-03-25T00:01:06;98444.81;;;11.79;69.54
39267;BME280;24967;51.154;13.812;2023-03-25T00:03:35;98447.22;;;11.74;69.99
39267;BME280;24967;51.154;13.812;2023-03-25T00:06:05;98451.25;;;11.70;69.49
39267;BME280;24967;51.154;13.812;2023-03-25T00:08:32;98447.59;;;11.71;69.61
39267;BME280;24967;51.154;13.812;2023-03-25T00:11:00;98450.63;;;11.53;69.98
39267;BME280;24967;51.154;13.812;2023-03-25T00:13:27;98443.56;;;11.60;69.92
39267;BME280;24967;51.154;13.812;2023-03-25T00:15:56;98447.84;;;11.61;69.75
39267;BME280;24967;51.154;13.812;2023-03-25T00:18:24;98443.53;;;11.45;69.61
39267;BME280;24967;51.154;13.812;2023-03-25T00:20:54;98447.03;;;11.46;69.95
39267;BME280;24967;51.154;13.812;2023-03-25T00:23:23;98442.44;;;11.55;69.72
39267;BME280;24967;51.154;13.812;2023-03-25T00:25:49;98442.66;;;11.68;69.10
39267;BME280;24967;51.154;13.812;2023-03-25T00:28:17;98435.28;;;11.70;68.82
39267;BME280;24967;51.154;13.812;2023-03-25T00:30:44;98433.28;;;11.72;68.83
39267;BME280;24967;51.154;13.812;2023-03-25T00:33:10;98430.88;;;11.77;68.45
39267;BME280;24967;51.154;13.812;2023-03-25T00:35:38;98431.78;;;11.84;67.95
39267;BME280;24967;51.154;13.812;2023-03-25T00:38:09;98422.25;;;11.90;67.47
39267;BME280;24967;51.154;13.812;2023-03-25T00:40:37;98427.94;;;12.02;67.00
39267;BME280;24967;51.154;13.812;2023-03-25T00:43:04;98415.47;;;11.87;67.65
39267;BME280;24967;51.154;13.812;2023-03-25T00:45:32;98415.63;;;12.01;67.05
39267;BME280;24967;51.154;13.812;2023-03-25T00:47:58;98413.00;;;11.71;68.00
39267;BME280;24967;51.154;13.812;2023-03-25T00:50:25;98421.34;;;11.68;68.09
39267;BME280;24967;51.154;13.812;2023-03-25T00:52:52;98424.47;;;11.57;68.72
39267;BME280;24967;51.154;13.812;2023-03-25T00:55:19;98418.22;;;11.50;68.96
39267;BME280;24967;51.154;13.812;2023-03-25T00:57:46;98420.53;;;11.38;69.11
39267;BME280;24967;51.154;13.812;2023-03-25T01:00:15;98413.81;;;11.42;69.08
39267;BME280;24967;51.154;13.812;2023-03-25T01:02:42;98414.63;;;11.28;69.47
39267;BME280;24967;51.154;13.812;2023-03-25T01:05:10;98411.34;;;11.26;69.49
39267;BME280;24967;51.154;13.812;2023-03-25T01:07:38;98418.69;;;11.38;69.48
39267;BME280;24967;51.154;13.812;2023-03-25T01:10:06;98426.00;;;11.21;69.59
39267;BME280;24967;51.154;13.812;2023-03-25T01:12:34;98422.13;;;11.09;70.30
39267;BME280;24967;51.154;13.812;2023-03-25T01:15:02;98415.81;;;11.25;69.53
39267;BME280;24967;51.154;13.812;2023-03-25T01:17:28;98415.44;;;11.28;69.56
39267;BME280;24967;51.154;13.812;2023-03-25T01:19:55;98417.66;;;11.24;69.76
39267;BME280;24967;51.154;13.812;2023-03-25T01:22:22;98416.34;;;11.06;70.76
39267;BME280;24967;51.154;13.812;2023-03-25T01:24:48;98407.47;;;10.98;70.83
39267;BME280;24967;51.154;13.812;2023-03-25T01:27:15;98407.97;;;10.94;71.11
39267;BME280;24967;51.154;13.812;2023-03-25T01:29:41;98396.00;;;11.13;71.11
39267;BME280;24967;51.154;13.812;2023-03-25T01:32:09;98404.66;;;10.92;70.93
39267;BME280;24967;51.154;13.812;2023-03-25T01:34:35;98395.34;;;10.96;71.21
39267;BME280;24967;51.154;13.812;2023-03-25T01:37:02;98392.53;;;10.74;71.90
39267;BME280;24967;51.154;13.812;2023-03-25T01:39:30;98394.66;;;10.79;71.71
39267;BME280;24967;51.154;13.812;2023-03-25T01:41:57;98385.56;;;10.73;72.04
39267;BME280;24967;51.154;13.812;2023-03-25T01:47:28;98384.88;;;10.94;71.61
39267;BME280;24967;51.154;13.812;2023-03-25T01:49:55;98371.97;;;11.06;70.72
39267;BME280;24967;51.154;13.812;2023-03-25T01:52:24;98364.53;;;11.16;70.66
39267;BME280;24967;51.154;13.812;2023-03-25T01:54:52;98364.66;;;11.23;70.25
39267;BME280;24967;51.154;13.812;2023-03-25T01:57:22;98361.25;;;11.44;69.78
39267;BME280;24967;51.154;13.812;2023-03-25T01:59:50;98362.16;;;11.21;70.11
39267;BME280;24967;51.154;13.812;2023-03-25T02:02:19;98346.66;;;11.25;70.13
39267;BME280;24967;51.154;13.812;2023-03-25T02:04:54;98356.66;;;11.08;70.91
39267;BME280;24967;51.154;13.812;2023-03-25T02:07:27;98342.63;;;11.14;70.61
39267;BME280;24967;51.154;13.812;2023-03-25T02:09:55;98348.28;;;11.56;69.49
39267;BME280;24967;51.154;13.812;2023-03-25T02:12:23;98341.88;;;11.65;69.28
39267;BME280;24967;51.154;13.812;2023-03-25T02:14:50;98340.38;;;11.77;68.34
39267;BME280;24967;51.154;13.812;2023-03-25T02:17:20;98343.63;;;11.94;68.10
39267;BME280;24967;51.154;13.812;2023-03-25T02:23:35;98337.19;;;11.52;69.09
39267;BME280;24967;51.154;13.812;2023-03-25T02:26:26;98332.97;;;11.43;69.77
39267;BME280;24967;51.154;13.812;2023-03-25T02:29:06;98336.84;;;11.26;70.14
39267;BME280;24967;51.154;13.812;2023-03-25T02:31:46;98328.03;;;11.25;70.47
39267;BME280;24967;51.154;13.812;2023-03-25T02:40:15;98325.13;;;11.05;70.81
39267;BME280;24967;51.154;13.812;2023-03-25T02:42:49;98329.69;;;11.11;70.77
39267;BME280;24967;51.154;13.812;2023-03-25T02:45:22;98333.91;;;11.20;70.27
39267;BME280;24967;51.154;13.812;2023-03-25T02:47:56;98328.75;;;11.34;70.23
39267;BME280;24967;51.154;13.812;2023-03-25T02:50:27;98328.84;;;11.40;69.82
39267;BME280;24967;51.154;13.812;2023-03-25T02:52:55;98317.13;;;11.20;70.18
39267;BME280;24967;51.154;13.812;2023-03-25T02:55:26;98322.25;;;11.21;70.21
39267;BME280;24967;51.154;13.812;2023-03-25T02:57:54;98316.66;;;11.16;70.24
39267;BME280;24967;51.154;13.812;2023-03-25T03:00:25;98327.19;;;11.24;69.80
39267;BME280;24967;51.154;13.812;2023-03-25T03:02:55;98320.03;;;11.25;70.06
39267;BME280;24967;51.154;13.812;2023-03-25T03:05:25;98329.88;;;11.10;70.47
39267;BME280;24967;51.154;13.812;2023-03-25T03:08:00;98321.53;;;11.13;70.88
39267;BME280;24967;51.154;13.812;2023-03-25T03:10:40;98316.75;;;11.23;70.67
39267;BME280;24967;51.154;13.812;2023-03-25T03:13:18;98325.56;;;11.23;70.70
39267;BME280;24967;51.154;13.812;2023-03-25T03:15:53;98315.81;;;11.31;70.42
39267;BME280;24967;51.154;13.812;2023-03-25T03:18:27;98324.25;;;11.34;70.44
39267;BME280;24967;51.154;13.812;2023-03-25T03:21:06;98325.34;;;11.40;70.01
39267;BME280;24967;51.154;13.812;2023-03-25T03:23:42;98320.31;;;11.45;69.60
39267;BME280;24967;51.154;13.812;2023-03-25T03:26:20;98316.91;;;11.51;69.63
39267;BME280;24967;51.154;13.812;2023-03-25T03:28:55;98310.28;;;11.62;69.34
39267;BME280;24967;51.154;13.812;2023-03-25T03:31:25;98327.59;;;11.73;68.83
39267;BME280;24967;51.154;13.812;2023-03-25T03:33:55;98325.50;;;11.68;68.97
39267;BME280;24967;51.154;13.812;2023-03-25T03:36:25;98322.22;;;11.66;68.98
39267;BME280;24967;51.154;13.812;2023-03-25T03:38:58;98321.13;;;11.45;69.30
39267;BME280;24967;51.154;13.812;2023-03-25T03:41:33;98318.94;;;11.34;69.46
39267;BME280;24967;51.154;13.812;2023-03-25T03:44:02;98322.50;;;11.56;68.84
39267;BME280;24967;51.154;13.812;2023-03-25T03:46:34;98320.91;;;11.26;69.25
39267;BME280;24967;51.154;13.812;2023-03-25T03:49:04;98327.09;;;11.48;69.27
39267;BME280;24967;51.154;13.812;2023-03-25T03:51:35;98337.75;;;11.33;69.07
39267;BME280;24967;51.154;13.812;2023-03-25T03:54:05;98328.88;;;11.26;69.46
39267;BME280;24967;51.154;13.812;2023-03-25T03:56:38;98327.13;;;11.33;69.12
39267;BME280;24967;51.154;13.812;2023-03-25T03:59:14;98331.41;;;11.34;69.29
39267;BME280;24967;51.154;13.812;2023-03-25T04:01:45;98332.59;;;11.16;68.98
39267;BME280;24967;51.154;13.812;2023-03-25T04:04:15;98326.22;;;10.96;70.06
39267;BME280;24967;51.154;13.812;2023-03-25T04:06:47;98342.78;;;11.13;69.37
39267;BME280;24967;51.154;13.812;2023-03-25T04:09:24;98333.25;;;11.04;69.36
39267;BME280;24967;51.154;13.812;2023-03-25T04:12:02;98339.88;;;11.22;68.81
39267;BME280;24967;51.154;13.812;2023-03-25T04:14:31;98349.66;;;11.07;68.74
39267;BME280;24967;51.154;13.812;2023-03-25T04:16:57;98342.53;;;11.22;68.63
39267;BME280;24967;51.154;13.812;2023-03-25T04:19:25;98346.28;;;11.28;68.52
39267;BME280;24967;51.154;13.812;2023-03-25T04:21:52;98343.38;;;11.38;68.09
39267;BME280;24967;51.154;13.812;2023-03-25T04:24:19;98352.69;;;11.34;68.11
39267;BME280;24967;51.154;13.812;2023-03-25T04:26:45;98345.47;;;11.13;67.97
39267;BME280;24967;51.154;13.812;2023-03-25T04:29:15;98342.06;;;11.34;67.74
39267;BME280;24967;51.154;13.812;2023-03-25T04:31:41;98348.69;;;11.08;68.66
39267;BME280;24967;51.154;13.812;2023-03-25T04:34:11;98342.34;;;11.09;69.05
39267;BME280;24967;51.154;13.812;2023-03-25T04:36:38;98341.97;;;11.12;68.42
39267;BME280;24967;51.154;13.812;2023-03-25T04:39:07;98337.69;;;11.11;68.06
39267;BME280;24967;51.154;13.812;2023-03-25T04:41:34;98348.47;;;11.10;68.70
39267;BME280;24967;51.154;13.812;2023-03-25T04:44:01;98342.72;;;11.06;68.36
39267;BME280;24967;51.154;13.812;2023-03-25T04:46:28;98343.06;;;10.88;69.22
39267;BME280;24967;51.154;13.812;2023-03-25T04:48:55;98340.34;;;11.11;68.54
39267;BME280;24967;51.154;13.812;2023-03-25T04:51:22;98348.03;;;11.06;68.84
39267;BME280;24967;51.154;13.812;2023-03-25T04:53:48;98343.16;;;11.24;68.14
39267;BME280;24967;51.154;13.812;2023-03-25T04:56:16;98351.50;;;11.07;68.20
39267;BME280;24967;51.154;13.812;2023-03-25T04:58:43;98353.53;;;11.05;68.49
39267;BME280;24967;51.154;13.812;2023-03-25T05:01:19;98351.69;;;10.90;68.85
39267;BME280;24967;51.154;13.812;2023-03-25T05:03:48;98355.97;;;10.91;68.99
39267;BME280;24967;51.154;13.812;2023-03-25T05:06:15;98349.94;;;10.97;69.24
39267;BME280;24967;51.154;13.812;2023-03-25T05:08:42;98346.28;;;10.84;69.08
39267;BME280;24967;51.154;13.812;2023-03-25T05:11:09;98342.22;;;10.88;69.61
39267;BME280;24967;51.154;13.812;2023-03-25T05:13:35;98345.09;;;10.86;68.96
39267;BME280;24967;51.154;13.812;2023-03-25T05:16:02;98340.47;;;10.65;69.59
39267;BME280;24967;51.154;13.812;2023-03-25T05:18:28;98340.75;;;10.85;69.04
39267;BME280;24967;51.154;13.812;2023-03-25T05:20:56;98351.47;;;10.62;69.82
39267;BME280;24967;51.154;13.812;2023-03-25T05:23:25;98346.72;;;10.49;69.82
39267;BME280;24967;51.154;13.812;2023-03-25T05:25:51;98351.63;;;10.38;69.92
39267;BME280;24967;51.154;13.812;2023-03-25T05:28:17;98352.91;;;10.50;69.72
39267;BME280;24967;51.154;13.812;2023-03-25T05:30:45;98357.59;;;10.63;69.26
39267;BME280;24967;51.154;13.812;2023-03-25T05:33:13;98355.47;;;10.58;69.66
39267;BME280;24967;51.154;13.812;2023-03-25T05:35:41;98353.19;;;10.70;69.05
39267;BME280;24967;51.154;13.812;2023-03-25T05:38:09;98347.06;;;10.69;69.30
39267;BME280;24967;51.154;13.812;2023-03-25T05:40:38;98354.41;;;10.82;69.11
39267;BME280;24967;51.154;13.812;2023-03-25T05:43:05;98354.63;;;10.58;69.63
39267;BME280;24967;51.154;13.812;2023-03-25T05:45:32;98354.56;;;10.66;71.26
39267;BME280;24967;51.154;13.812;2023-03-25T05:48:00;98353.81;;;10.57;70.47
39267;BME280;24967;51.154;13.812;2023-03-25T05:50:27;98355.81;;;10.55;70.20
39267;BME280;24967;51.154;13.812;2023-03-25T05:52:54;98360.50;;;10.53;69.45
39267;BME280;24967;51.154;13.812;2023-03-25T05:55:23;98356.41;;;10.65;68.68
39267;BME280;24967;51.154;13.812;2023-03-25T05:57:49;98359.06;;;10.80;68.51
39267;BME280;24967;51.154;13.812;2023-03-25T06:00:19;98367.66;;;10.67;67.31
39267;BME280;24967;51.154;13.812;2023-03-25T06:02:46;98373.91;;;10.60;65.93
39267;BME280;24967;51.154;13.812;2023-03-25T06:05:15;98368.13;;;10.56;66.31
39267;BME280;24967;51.154;13.812;2023-03-25T06:07:42;98372.13;;;10.52;65.88
39267;BME280;24967;51.154;13.812;2023-03-25T06:10:10;98376.97;;;10.48;66.69
39267;BME280;24967;51.154;13.812;2023-03-25T06:12:38;98384.28;;;10.46;66.04
39267;BME280;24967;51.154;13.812;2023-03-25T06:15:06;98389.59;;;10.46;64.90
39267;BME280;24967;51.154;13.812;2023-03-25T06:17:34;98397.34;;;10.33;65.18
39267;BME280;24967;51.154;13.812;2023-03-25T06:20:03;98399.66;;;10.59;64.53
39267;BME280;24967;51.154;13.812;2023-03-25T06:22:31;98400.72;;;10.27;64.74
39267;BME280;24967;51.154;13.812;2023-03-25T06:25:02;98405.13;;;10.58;64.66
39267;BME280;24967;51.154;13.812;2023-03-25T06:27:29;98403.00;;;10.30;64.81
39267;BME280;24967;51.154;13.812;2023-03-25T06:30:00;98399.75;;;10.43;65.34
39267;BME280;24967;51.154;13.812;2023-03-25T06:32:26;98393.81;;;10.09;66.00
39267;BME280;24967;51.154;13.812;2023-03-25T06:34:53;98407.63;;;10.05;66.46
39267;BME280;24967;51.154;13.812;2023-03-25T06:37:19;98399.59;;;9.82;67.41
39267;BME280;24967;51.154;13.812;2023-03-25T06:39:50;98409.19;;;9.91;67.63
39267;BME280;24967;51.154;13.812;2023-03-25T06:42:21;98406.97;;;10.03;67.49
39267;BME280;24967;51.154;13.812;2023-03-25T06:44:47;98422.28;;;9.93;67.68
39267;BME280;24967;51.154;13.812;2023-03-25T06:47:15;98415.06;;;10.09;67.77
39267;BME280;24967;51.154;13.812;2023-03-25T06:49:41;98414.53;;;10.14;67.84
39267;BME280;24967;51.154;13.812;2023-03-25T06:52:08;98413.72;;;10.14;67.99
39267;BME280;24967;51.154;13.812;2023-03-25T06:54:36;98417.78;;;10.32;68.14
39267;BME280;24967;51.154;13.812;2023-03-25T06:57:02;98422.53;;;10.37;67.38
39267;BME280;24967;51.154;13.812;2023-03-25T06:59:29;98422.38;;;10.39;67.58
39267;BME280;24967;51.154;13.812;2023-03-25T07:01:56;98421.22;;;10.41;66.86
39267;BME280;24967;51.154;13.812;2023-03-25T07:04:24;98421.63;;;10.53;67.22
39267;BME280;24967;51.154;13.812;2023-03-25T07:06:50;98424.41;;;10.60;66.59
39267;BME280;24967;51.154;13.812;2023-03-25T07:09:17;98422.38;;;10.62;66.45
39267;BME280;24967;51.154;13.812;2023-03-25T07:11:44;98430.13;;;10.71;66.10
39267;BME280;24967;51.154;13.812;2023-03-25T07:14:10;98421.25;;;10.79;65.75
39267;BME280;24967;51.154;13.812;2023-03-25T07:16:37;98422.16;;;10.71;65.03
39267;BME280;24967;51.154;13.812;2023-03-25T07:19:03;98425.38;;;10.82;65.37
39267;BME280;24967;51.154;13.812;2023-03-25T07:21:31;98424.50;;;11.04;64.55
39267;BME280;24967;51.154;13.812;2023-03-25T07:23:57;98420.38;;;11.16;64.70
39267;BME280;24967;51.154;13.812;2023-03-25T07:26:24;98426.66;;;11.23;64.16
39267;BME280;24967;51.154;13.812;2023-03-25T07:28:50;98428.47;;;11.53;63.88
39267;BME280;24967;51.154;13.812;2023-03-25T07:31:17;98423.06;;;11.61;63.19
39267;BME280;24967;51.154;13.812;2023-03-25T07:33:44;98424.56;;;11.63;62.87
39267;BME280;24967;51.154;13.812;2023-03-25T07:36:11;98421.06;;;11.63;62.95
39267;BME280;24967;51.154;13.812;2023-03-25T07:38:39;98425.66;;;11.69;62.14
39267;BME280;24967;51.154;13.812;2023-03-25T07:41:07;98427.84;;;11.80;63.06
39267;BME280;24967;51.154;13.812;2023-03-25T07:43:34;98424.84;;;11.68;61.99
39267;BME280;24967;51.154;13.812;2023-03-25T07:46:00;98424.75;;;11.62;61.31
39267;BME280;24967;51.154;13.812;2023-03-25T07:48:27;98424.47;;;11.57;60.24
39267;BME280;24967;51.154;13.812;2023-03-25T07:50:53;98430.88;;;11.77;61.16
39267;BME280;24967;51.154;13.812;2023-03-25T07:53:20;98436.84;;;11.64;60.46
39267;BME280;24967;51.154;13.812;2023-03-25T07:55:48;98444.63;;;11.36;61.79
39267;BME280;24967;51.154;13.812;2023-03-25T07:58:15;98442.06;;;11.28;61.73
39267;BME280;24967;51.154;13.812;2023-03-25T08:00:42;98450.09;;;11.05;61.67
39267;BME280;24967;51.154;13.812;2023-03-25T08:03:09;98446.63;;;11.05;61.50
39267;BME280;24967;51.154;13.812;2023-03-25T08:05:36;98444.81;;;11.20;62.16
39267;BME280;24967;51.154;13.812;2023-03-25T08:08:03;98453.97;;;11.17;61.99
39267;BME280;24967;51.154;13.812;2023-03-25T08:10:30;98453.25;;;11.23;61.98
39267;BME280;24967;51.154;13.812;2023-03-25T08:13:00;98462.84;;;11.10;62.50
39267;BME280;24967;51.154;13.812;2023-03-25T08:15:27;98464.63;;;10.94;62.57
39267;BME280;24967;51.154;13.812;2023-03-25T08:17:53;98455.28;;;10.84;63.24
39267;BME280;24967;51.154;13.812;2023-03-25T08:20:24;98457.88;;;11.07;64.17
39267;BME280;24967;51.154;13.812;2023-03-25T11:19:35;98466.19;;;10.03;82.56
39267;BME280;24967;51.154;13.812;2023-03-25T11:22:08;98448.16;;;10.30;80.72
39267;BME280;24967;51.154;13.812;2023-03-25T11:24:40;98449.03;;;10.53;79.24
39267;BME280;24967;51.154;13.812;2023-03-25T11:27:07;98444.06;;;10.50;77.61
39267;BME280;24967;51.154;13.812;2023-03-25T11:29:36;98453.72;;;10.43;76.56
39267;BME280;24967;51.154;13.812;2023-03-25T11:32:05;98441.69;;;10.24;73.23
39267;BME280;24967;51.154;13.812;2023-03-25T11:34:35;98457.84;;;10.15;73.22
39267;BME280;24967;51.154;13.812;2023-03-25T11:37:14;98440.31;;;10.37;74.78
39267;BME280;24967;51.154;13.812;2023-03-25T11:39:42;98438.44;;;10.68;75.53
39267;BME280;24967;51.154;13.812;2023-03-25T11:42:24;98447.88;;;10.48;73.61
39267;BME280;24967;51.154;13.812;2023-03-25T11:47:31;98440.97;;;10.62;72.45
39267;BME280;24967;51.154;13.812;2023-03-25T11:50:00;98430.09;;;11.09;72.98
39267;BME280;24967;51.154;13.812;2023-03-25T11:52:34;98430.59;;;11.42;72.16
39267;BME280;24967;51.154;13.812;2023-03-25T11:55:05;98421.41;;;11.30;68.33
39267;BME280;24967;51.154;13.812;2023-03-25T11:57:36;98421.41;;;11.30;66.99
39267;BME280;24967;51.154;13.812;2023-03-25T12:00:25;98412.06;;;11.49;66.85
39267;BME280;24967;51.154;13.812;2023-03-25T12:02:58;98415.81;;;11.69;65.18
39267;BME280;24967;51.154;13.812;2023-03-25T12:05:27;98410.69;;;11.68;64.82
39267;BME280;24967;51.154;13.812;2023-03-25T12:08:03;98404.06;;;11.79;64.64
39267;BME280;24967;51.154;13.812;2023-03-25T12:10:39;98393.44;;;11.64;63.30
39267;BME280;24967;51.154;13.812;2023-03-25T12:13:16;98389.13;;;11.93;63.99
39267;BME280;24967;51.154;13.812;2023-03-25T12:15:50;98388.47;;;12.27;63.33
39267;BME280;24967;51.154;13.812;2023-03-25T12:18:34;98376.91;;;12.63;63.80
39267;BME280;24967;51.154;13.812;2023-03-25T12:21:12;98378.66;;;12.55;62.79
39267;BME280;24967;51.154;13.812;2023-03-25T12:23:46;98382.41;;;12.61;62.28
39267;BME280;24967;51.154;13.812;2023-03-25T12:26:19;98394.03;;;12.75;62.03
39267;BME280;24967;51.154;13.812;2023-03-25T12:29:09;98365.09;;;13.00;61.70
39267;BME280;24967;51.154;13.812;2023-03-25T12:31:49;98365.47;;;12.97;60.49
39267;BME280;24967;51.154;13.812;2023-03-25T12:34:29;98364.66;;;12.96;59.81
39267;BME280;24967;51.154;13.812;2023-03-25T12:37:10;98374.38;;;13.32;59.55
39267;BME280;24967;51.154;13.812;2023-03-25T12:39:52;98363.19;;;13.50;57.13
39267;BME280;24967;51.154;13.812;2023-03-25T12:42:35;98361.09;;;13.17;56.21
39267;BME280;24967;51.154;13.812;2023-03-25T12:45:29;98359.22;;;13.11;57.09
39267;BME280;24967;51.154;13.812;2023-03-25T12:48:05;98352.00;;;12.77;56.26
39267;BME280;24967;51.154;13.812;2023-03-25T12:50:44;98347.09;;;12.80;55.45
39267;BME280;24967;51.154;13.812;2023-03-25T12:53:29;98343.97;;;12.98;56.81
39267;BME280;24967;51.154;13.812;2023-03-25T12:56:08;98332.13;;;13.07;56.16
39267;BME280;24967;51.154;13.812;2023-03-25T12:59:08;98345.50;;;12.86;56.58
39267;BME280;24967;51.154;13.812;2023-03-25T13:01:46;98371.06;;;12.74;57.64
39267;BME280;24967;51.154;13.812;2023-03-25T13:04:26;98388.94;;;11.05;64.76
39267;BME280;24967;51.154;13.812;2023-03-25T13:06:59;98377.38;;;10.60;72.14
39267;BME280;24967;51.154;13.812;2023-03-25T13:09:32;98377.72;;;10.95;76.08
39267;BME280;24967;51.154;13.812;2023-03-25T13:12:02;98361.66;;;10.88;76.79
39267;BME280;24967;51.154;13.812;2023-03-25T13:14:35;98352.31;;;11.07;75.91
39267;BME280;24967;51.154;13.812;2023-03-25T13:17:06;98353.53;;;11.19;76.33
39267;BME280;24967;51.154;13.812;2023-03-25T13:19:37;98347.56;;;11.62;78.32
39267;BME280;24967;51.154;13.812;2023-03-25T13:22:15;98357.53;;;11.75;73.25
39267;BME280;24967;51.154;13.812;2023-03-25T13:24:48;98347.69;;;11.90;71.38
39267;BME280;24967;51.154;13.812;2023-03-25T13:27:16;98335.38;;;11.89;70.58
39267;BME280;24967;51.154;13.812;2023-03-25T13:29:46;98330.97;;;11.81;68.15
39267;BME280;24967;51.154;13.812;2023-03-25T13:32:17;98333.06;;;12.01;69.35
39267;BME280;24967;51.154;13.812;2023-03-25T13:34:46;98332.06;;;12.23;67.92
39267;BME280;24967;51.154;13.812;2023-03-25T13:37:19;98319.19;;;12.27;65.29
39267;BME280;24967;51.154;13.812;2023-03-25T13:39:59;98319.28;;;11.97;61.71
39267;BME280;24967;51.154;13.812;2023-03-25T13:42:42;98314.66;;;12.06;62.38
39267;BME280;24967;51.154;13.812;2023-03-25T13:45:15;98309.13;;;11.86;62.27
39267;BME280;24967;51.154;13.812;2023-03-25T13:47:45;98313.53;;;11.94;62.01
39267;BME280;24967;51.154;13.812;2023-03-25T13:50:16;98311.13;;;11.99;62.63
39267;BME280;24967;51.154;13.812;2023-03-25T13:52:48;98310.38;;;12.05;63.81
39267;BME280;24967;51.154;13.812;2023-03-25T13:55:22;98304.34;;;11.96;61.10
39267;BME280;24967;51.154;13.812;2023-03-25T13:58:29;98311.31;;;12.19;61.76
39267;BME280;24967;51.154;13.812;2023-03-25T14:04:13;98294.88;;;12.36;60.48
39267;BME280;24967;51.154;13.812;2023-03-25T14:06:57;98299.72;;;12.54;58.87
39267;BME280;24967;51.154;13.812;2023-03-25T14:09:46;98301.75;;;12.52;57.51
39267;BME280;24967;51.154;13.812;2023-03-25T14:12:22;98299.28;;;12.79;57.91
39267;BME280;24967;51.154;13.812;2023-03-25T14:14:55;98304.50;;;12.94;57.30
39267;BME280;24967;51.154;13.812;2023-03-25T14:17:25;98310.28;;;12.97;55.78
39267;BME280;24967;51.154;13.812;2023-03-25T14:19:53;98301.81;;;12.87;55.91
39267;BME280;24967;51.154;13.812;2023-03-25T14:22:25;98307.34;;;13.20;57.55
39267;BME280;24967;51.154;13.812;2023-03-25T14:24:53;98305.19;;;13.02;54.76
39267;BME280;24967;51.154;13.812;2023-03-25T14:27:24;98300.53;;;13.11;55.35
39267;BME280;24967;51.154;13.812;2023-03-25T14:29:57;98299.91;;;13.16;54.72
39267;BME280;24967;51.154;13.812;2023-03-25T14:32:37;98290.84;;;13.45;55.72
39267;BME280;24967;51.154;13.812;2023-03-25T14:37:34;98298.66;;;13.12;53.20
39267;BME280;24967;51.154;13.812;2023-03-25T14:43:20;98296.25;;;12.89;54.17
39267;BME280;24967;51.154;13.812;2023-03-25T14:46:02;98332.31;;;12.78;54.85
39267;BME280;24967;51.154;13.812;2023-03-25T14:48:32;98350.41;;;11.16;65.80
39267;BME280;24967;51.154;13.812;2023-03-25T14:51:42;98376.34;;;10.84;72.67
39267;BME280;24967;51.154;13.812;2023-03-25T14:54:20;98393.16;;;10.07;75.61
39267;BME280;24967;51.154;13.812;2023-03-25T15:01:08;98420.25;;;8.91;83.26
39267;BME280;24967;51.154;13.812;2023-03-25T15:03:43;98403.69;;;8.48;85.69
39267;BME280;24967;51.154;13.812;2023-03-25T15:06:16;98363.66;;;8.52;82.81
39267;BME280;24967;51.154;13.812;2023-03-25T15:08:52;98376.22;;;8.58;81.52
39267;BME280;24967;51.154;13.812;2023-03-25T15:11:26;98370.56;;;8.77;81.08
39267;BME280;24967;51.154;13.812;2023-03-25T15:13:58;98380.53;;;8.75;81.61
39267;BME280;24967;51.154;13.812;2023-03-25T15:16:32;98391.31;;;8.65;82.19
39267;BME280;24967;51.154;13.812;2023-03-25T15:19:11;98395.56;;;8.83;83.48
39267;BME280;24967;51.154;13.812;2023-03-25T15:22:04;98393.91;;;8.98;83.28
39267;BME280;24967;51.154;13.812;2023-03-25T15:24:36;98387.75;;;9.14;83.49
39267;BME280;24967;51.154;13.812;2023-03-25T15:27:08;98376.13;;;9.23;83.72
39267;BME280;24967;51.154;13.812;2023-03-25T15:30:18;98381.59;;;9.13;83.62
39267;BME280;24967;51.154;13.812;2023-03-25T15:33:07;98389.09;;;9.02;83.70
39267;BME280;24967;51.154;13.812;2023-03-25T15:35:57;98386.28;;;8.95;82.22
39267;BME280;24967;51.154;13.812;2023-03-25T15:38:50;98384.59;;;9.10;81.54
39267;BME280;24967;51.154;13.812;2023-03-25T15:41:48;98386.69;;;9.39;78.29
39267;BME280;24967;51.154;13.812;2023-03-25T15:44:56;98380.09;;;9.27;76.53
39267;BME280;24967;51.154;13.812;2023-03-25T15:48:00;98383.56;;;9.67;76.40
39267;BME280;24967;51.154;13.812;2023-03-25T15:50:51;98370.19;;;9.60;75.27
39267;BME280;24967;51.154;13.812;2023-03-25T15:53:47;98373.03;;;9.51;72.91
39267;BME280;24967;51.154;13.812;2023-03-25T15:56:20;98376.00;;;9.56;73.91
39267;BME280;24967;51.154;13.812;2023-03-25T15:58:51;98372.84;;;9.60;72.33
39267;BME280;24967;51.154;13.812;2023-03-25T16:01:28;98378.28;;;9.59;70.85
39267;BME280;24967;51.154;13.812;2023-03-25T16:04:02;98384.47;;;9.51;71.42
39267;BME280;24967;51.154;13.812;2023-03-25T16:06:36;98383.44;;;9.60;71.02
39267;BME280;24967;51.154;13.812;2023-03-25T16:09:13;98373.50;;;9.62;71.18
39267;BME280;24967;51.154;13.812;2023-03-25T16:11:45;98371.97;;;9.68;70.14
39267;BME280;24967;51.154;13.812;2023-03-25T16:14:14;98383.09;;;9.63;69.06
39267;BME280;24967;51.154;13.812;2023-03-25T16:16:44;98382.41;;;9.70;69.13
39267;BME280;24967;51.154;13.812;2023-03-25T16:19:17;98380.94;;;9.67;68.08
39267;BME280;24967;51.154;13.812;2023-03-25T16:21:47;98385.44;;;9.58;68.38
39267;BME280;24967;51.154;13.812;2023-03-25T16:24:20;98389.72;;;9.68;68.17
39267;BME280;24967;51.154;13.812;2023-03-25T16:26:49;98394.44;;;9.49;67.83
39267;BME280;24967;51.154;13.812;2023-03-25T16:29:21;98400.53;;;9.58;68.25
39267;BME280;24967;51.154;13.812;2023-03-25T16:31:54;98400.41;;;9.82;67.89
39267;BME280;24967;51.154;13.812;2023-03-25T16:34:25;98402.25;;;9.82;66.86
39267;BME280;24967;51.154;13.812;2023-03-25T16:36:54;98400.03;;;9.94;67.00
39267;BME280;24967;51.154;13.812;2023-03-25T16:39:24;98403.56;;;9.86;66.77